Richfield, OH (44286)

9:04 PM EST on December 08, 2016 (GMT -0500)
Deer Creek Reserve | | Change Station

Elev 1148 ft 41.26 °N, 81.65 °W | Updated 12 seconds ago

Overcast
Overcast
21.6 °F
Feels Like 22 °F
N
0.0
Wind Variable Wind from SSW

Today
High -- | Low -- °F
--% Chance of Precip.
Yesterday
High -- | Low -- °F
Precip. -- in
Pressure 30.29 in
Visibility 9.0 miles
Clouds Overcast 2200 ft
Windchill 22 °F
Dew Point 15 °F
Humidity 78%
Rainfall 0.00 in
Snow Depth Not available.
7:39 AM 4:57 PM
Waxing Gibbous, 69% visible
METAR KCLE 090151Z 25017G24KT 9SM -SN OVC022 M04/M09 A3026 RMK AO2 PK WND 26028/0117 SLP257 P0000 T10391094
Pressure 30.29 in
Visibility 9.0 miles
Clouds Overcast 2200 ft
Windchill 22 °F
Dew Point 15 °F
Humidity 78%
Rainfall 0.00 in
Snow Depth Not available.
7:39 AM 4:57 PM
Waxing Gibbous, 69% visible
METAR KCLE 090151Z 25017G24KT 9SM -SN OVC022 M04/M09 A3026 RMK AO2 PK WND 26028/0117 SLP257 P0000 T10391094

10-Day Weather Forecast

Almanac

Astronomy

Dec. 08, 2016 Rise Set
Actual Time
Civil Twilight
Nautical Twilight
Astronomical Twilight
Moon
Length of Visible Light
Length of Day
Tomorrow will be .
, % of the Moon is Illuminated

Today's Extremes

State Highs State Lows

Community

WunderPhotos

Upload Photos

1,956,351 photos uploaded!

WunderBlog® & News

Nearby

Air Quality

  Air Quality AQ Index Pollutant
Not available.

Snow Depth

Station Depth Elevation

Earthquake Activity

City Distance Mag. Time & Date
Minimum magnitude displayed is 2.5.

Coastal Water Temperatures

Place Temperature

Stations

Nearby Weather Stations

Station Location Temp. Windchill Dew Point Humidity Wind Precip. Elev Updated Type
                   

Watches & Warnings

There are currently no watches in effect.